Pagrindinis puslapis
METAR-TAF:

METAR-TAF

Oro uostai :

Linšiopingas, Švedija

platuma: 58-24N, ilguma: 015-41E, Aukštis: 52 m

Dabartinis oras

Ataskaita buvo paskelbta 20 minutes, ne 16:20 UTC
Vėjas 8 kt iš Pietų/Pietryčių
Temperatūra 18°C
Drėgmė 32%
Slėgis 1009 hPa
Matomumas 10 km arba daugiau

METAR: ESSL 231620Z AUTO 15008KT 9999 FEW078/// 18/01 Q1009

Laikas: 18:40 (16:40 UTC)

Prognozė

Ataskaita buvo paskelbta 5 valandos ir 10 minutes, ne 11:30 UTC
Prognozė galioja nuo 23 metu 12 UTC su 23 metu 16 UTC
Vėjas 7 kt iš Pietų
Matomumas 10 km arba daugiau
Išsisklaidę debesys ne aukštis 4000 ft
Laikinai
nuo 23 metu 12 UTC su 23 metu 15 UTC
Su prošvaistėmis ne aukštis 4000 ft, aukštai iškilę kamuoliniai debesys.

TAF: ESSL 231130Z 2312/2316 19007KT 9999 SCT040 TEMPO 2312/2315 BKN040TCU

Orai ataskaitas ir orų prognozės (METAR, TAF).

turimą stotys yra geltonos ir raudonos taškus žemėlapyje.

Perkelti pele per norėdami pamatyti stoties vardą.

Tada spustelėkite, norėdami matyti oro stebėjimo ir prognozės.

Norėdami pakeisti žemėlapį: spustelėkite ant žalios mygtukų su juodo kryžiaus žemyn,; žalią mygtuką su brūkšneliu, jei norite nutolinti; arba žalių rodyklių gretimoms žemėlapius.


METAR-TAF: